sensor_id;sensor_type;location;lat;lon;timestamp;P1;durP1;ratioP1;P2;durP2;ratioP2
60078;SDS011;45951;45.824;8.824;2023-05-10T00:00:01;11.37;;;9.30;;
60078;SDS011;45951;45.824;8.824;2023-05-10T00:00:14;11.15;;;9.25;;
60078;SDS011;45951;45.824;8.824;2023-05-10T00:00:25;11.55;;;9.63;;
60078;SDS011;45951;45.824;8.824;2023-05-10T00:00:35;11.30;;;9.77;;
60078;SDS011;45951;45.824;8.824;2023-05-10T00:00:45;11.23;;;9.65;;
60078;SDS011;45951;45.824;8.824;2023-05-10T00:00:56;10.77;;;9.30;;
60078;SDS011;45951;45.824;8.824;2023-05-10T00:01:07;10.85;;;9.30;;
60078;SDS011;45951;45.824;8.824;2023-05-10T00:01:17;10.57;;;9.17;;
60078;SDS011;45951;45.824;8.824;2023-05-10T00:01:27;10.30;;;9.02;;
60078;SDS011;45951;45.824;8.824;2023-05-10T00:01:38;10.43;;;8.67;;
60078;SDS011;45951;45.824;8.824;2023-05-10T00:01:48;11.07;;;8.87;;
60078;SDS011;45951;45.824;8.824;2023-05-10T00:01:58;11.43;;;9.13;;
60078;SDS011;45951;45.824;8.824;2023-05-10T00:02:11;11.52;;;9.32;;
60078;SDS011;45951;45.824;8.824;2023-05-10T00:02:21;11.52;;;9.40;;
60078;SDS011;45951;45.824;8.824;2023-05-10T00:02:32;10.87;;;9.17;;
60078;SDS011;45951;45.824;8.824;2023-05-10T00:02:43;11.60;;;9.52;;
60078;SDS011;45951;45.824;8.824;2023-05-10T00:02:53;11.50;;;9.53;;
60078;SDS011;45951;45.824;8.824;2023-05-10T00:03:03;12.00;;;10.02;;
60078;SDS011;45951;45.824;8.824;2023-05-10T00:03:14;11.67;;;9.73;;
60078;SDS011;45951;45.824;8.824;2023-05-10T00:03:25;11.77;;;9.60;;
60078;SDS011;45951;45.824;8.824;2023-05-10T00:03:35;11.60;;;9.43;;
60078;SDS011;45951;45.824;8.824;2023-05-10T00:03:45;11.10;;;9.20;;
60078;SDS011;45951;45.824;8.824;2023-05-10T00:03:55;11.70;;;9.30;;
60078;SDS011;45951;45.824;8.824;2023-05-10T00:04:06;11.55;;;9.18;;
60078;SDS011;45951;45.824;8.824;2023-05-10T00:04:16;12.00;;;9.47;;
60078;SDS011;45951;45.824;8.824;2023-05-10T00:04:26;11.57;;;9.32;;
60078;SDS011;45951;45.824;8.824;2023-05-10T00:04:37;11.60;;;9.43;;
60078;SDS011;45951;45.824;8.824;2023-05-10T00:04:47;11.73;;;9.27;;
60078;SDS011;45951;45.824;8.824;2023-05-10T00:04:58;11.60;;;9.50;;
60078;SDS011;45951;45.824;8.824;2023-05-10T00:05:08;11.63;;;9.63;;
60078;SDS011;45951;45.824;8.824;2023-05-10T00:05:19;11.50;;;9.88;;
60078;SDS011;45951;45.824;8.824;2023-05-10T00:05:29;12.03;;;9.90;;
60078;SDS011;45951;45.824;8.824;2023-05-10T00:05:39;12.03;;;9.77;;
60078;SDS011;45951;45.824;8.824;2023-05-10T00:05:50;12.25;;;9.73;;
60078;SDS011;45951;45.824;8.824;2023-05-10T00:06:00;12.17;;;9.70;;
60078;SDS011;45951;45.824;8.824;2023-05-10T00:06:10;12.17;;;9.73;;
60078;SDS011;45951;45.824;8.824;2023-05-10T00:06:22;11.98;;;9.32;;
60078;SDS011;45951;45.824;8.824;2023-05-10T00:06:32;11.50;;;9.07;;
60078;SDS011;45951;45.824;8.824;2023-05-10T00:06:42;11.67;;;9.30;;
60078;SDS011;45951;45.824;8.824;2023-05-10T00:06:53;12.30;;;9.60;;
60078;SDS011;45951;45.824;8.824;2023-05-10T00:07:03;12.35;;;9.90;;
60078;SDS011;45951;45.824;8.824;2023-05-10T00:07:14;11.88;;;9.63;;
60078;SDS011;45951;45.824;8.824;2023-05-10T00:07:25;11.70;;;9.60;;
60078;SDS011;45951;45.824;8.824;2023-05-10T00:07:36;12.15;;;9.65;;
60078;SDS011;45951;45.824;8.824;2023-05-10T00:07:46;12.27;;;9.70;;
60078;SDS011;45951;45.824;8.824;2023-05-10T00:07:56;11.93;;;9.67;;
60078;SDS011;45951;45.824;8.824;2023-05-10T00:08:06;11.63;;;9.40;;
60078;SDS011;45951;45.824;8.824;2023-05-10T00:08:17;11.52;;;9.32;;
60078;SDS011;45951;45.824;8.824;2023-05-10T00:08:27;11.37;;;9.40;;
60078;SDS011;45951;45.824;8.824;2023-05-10T00:08:37;12.07;;;9.97;;
60078;SDS011;45951;45.824;8.824;2023-05-10T00:08:48;12.25;;;10.25;;
60078;SDS011;45951;45.824;8.824;2023-05-10T00:08:58;12.37;;;10.23;;
60078;SDS011;45951;45.824;8.824;2023-05-10T00:09:08;11.50;;;9.70;;
60078;SDS011;45951;45.824;8.824;2023-05-10T00:09:19;10.83;;;9.37;;
60078;SDS011;45951;45.824;8.824;2023-05-10T00:09:29;10.40;;;9.10;;
60078;SDS011;45951;45.824;8.824;2023-05-10T00:09:39;10.43;;;9.33;;
60078;SDS011;45951;45.824;8.824;2023-05-10T00:09:50;10.75;;;9.43;;
60078;SDS011;45951;45.824;8.824;2023-05-10T00:10:00;11.17;;;9.70;;
60078;SDS011;45951;45.824;8.824;2023-05-10T00:10:10;11.37;;;9.50;;
60078;SDS011;45951;45.824;8.824;2023-05-10T00:10:21;11.60;;;9.43;;
60078;SDS011;45951;45.824;8.824;2023-05-10T00:10:31;12.10;;;9.60;;
60078;SDS011;45951;45.824;8.824;2023-05-10T00:10:41;12.20;;;9.93;;
60078;SDS011;45951;45.824;8.824;2023-05-10T00:10:52;12.37;;;10.20;;
60078;SDS011;45951;45.824;8.824;2023-05-10T00:11:02;11.73;;;9.98;;
60078;SDS011;45951;45.824;8.824;2023-05-10T00:11:13;11.80;;;9.83;;
60078;SDS011;45951;45.824;8.824;2023-05-10T00:11:23;11.85;;;9.77;;
60078;SDS011;45951;45.824;8.824;2023-05-10T00:11:33;11.90;;;9.80;;
60078;SDS011;45951;45.824;8.824;2023-05-10T00:11:44;11.57;;;9.40;;
60078;SDS011;45951;45.824;8.824;2023-05-10T00:11:54;11.10;;;9.35;;
60078;SDS011;45951;45.824;8.824;2023-05-10T00:12:05;11.00;;;9.47;;
60078;SDS011;45951;45.824;8.824;2023-05-10T00:12:15;11.13;;;9.77;;
60078;SDS011;45951;45.824;8.824;2023-05-10T00:12:25;11.87;;;9.80;;
60078;SDS011;45951;45.824;8.824;2023-05-10T00:12:36;12.40;;;9.77;;
60078;SDS011;45951;45.824;8.824;2023-05-10T00:12:46;12.02;;;9.77;;
60078;SDS011;45951;45.824;8.824;2023-05-10T00:12:56;12.53;;;9.90;;
60078;SDS011;45951;45.824;8.824;2023-05-10T00:13:07;12.30;;;9.67;;
60078;SDS011;45951;45.824;8.824;2023-05-10T00:13:17;12.38;;;9.50;;
60078;SDS011;45951;45.824;8.824;2023-05-10T00:13:27;10.97;;;9.20;;
60078;SDS011;45951;45.824;8.824;2023-05-10T00:13:37;10.80;;;9.20;;
60078;SDS011;45951;45.824;8.824;2023-05-10T00:13:48;10.77;;;9.33;;
60078;SDS011;45951;45.824;8.824;2023-05-10T00:13:58;11.45;;;9.82;;
60078;SDS011;45951;45.824;8.824;2023-05-10T00:14:08;11.50;;;9.93;;
60078;SDS011;45951;45.824;8.824;2023-05-10T00:14:19;11.73;;;9.80;;
60078;SDS011;45951;45.824;8.824;2023-05-10T00:14:29;11.25;;;9.45;;
60078;SDS011;45951;45.824;8.824;2023-05-10T00:14:40;11.10;;;9.27;;
60078;SDS011;45951;45.824;8.824;2023-05-10T00:14:50;10.97;;;9.30;;
60078;SDS011;45951;45.824;8.824;2023-05-10T00:15:00;11.00;;;9.38;;
60078;SDS011;45951;45.824;8.824;2023-05-10T00:15:11;11.03;;;9.60;;
60078;SDS011;45951;45.824;8.824;2023-05-10T00:15:21;11.23;;;9.60;;
60078;SDS011;45951;45.824;8.824;2023-05-10T00:15:31;11.77;;;9.63;;
60078;SDS011;45951;45.824;8.824;2023-05-10T00:15:42;12.57;;;9.60;;
60078;SDS011;45951;45.824;8.824;2023-05-10T00:15:52;12.30;;;9.57;;
60078;SDS011;45951;45.824;8.824;2023-05-10T00:16:03;11.77;;;9.55;;
60078;SDS011;45951;45.824;8.824;2023-05-10T00:16:13;10.77;;;9.50;;
60078;SDS011;45951;45.824;8.824;2023-05-10T00:16:23;10.63;;;9.52;;
60078;SDS011;45951;45.824;8.824;2023-05-10T00:16:34;11.10;;;9.87;;
60078;SDS011;45951;45.824;8.824;2023-05-10T00:16:44;11.03;;;9.67;;
60078;SDS011;45951;45.824;8.824;2023-05-10T00:16:54;10.63;;;9.32;;
60078;SDS011;45951;45.824;8.824;2023-05-10T00:17:05;10.37;;;9.07;;
60078;SDS011;45951;45.824;8.824;2023-05-10T00:17:15;11.33;;;9.60;;
60078;SDS011;45951;45.824;8.824;2023-05-10T00:17:25;11.83;;;10.00;;
60078;SDS011;45951;45.824;8.824;2023-05-10T00:17:35;11.75;;;9.93;;
60078;SDS011;45951;45.824;8.824;2023-05-10T00:17:46;11.30;;;9.90;;
60078;SDS011;45951;45.824;8.824;2023-05-10T00:17:56;11.37;;;9.80;;
60078;SDS011;45951;45.824;8.824;2023-05-10T00:18:06;11.40;;;9.65;;
60078;SDS011;45951;45.824;8.824;2023-05-10T00:18:17;11.40;;;9.37;;
60078;SDS011;45951;45.824;8.824;2023-05-10T00:18:27;11.47;;;9.43;;
60078;SDS011;45951;45.824;8.824;2023-05-10T00:18:37;11.80;;;9.65;;
60078;SDS011;45951;45.824;8.824;2023-05-10T00:18:48;11.23;;;9.37;;
60078;SDS011;45951;45.824;8.824;2023-05-10T00:18:58;10.87;;;9.30;;
60078;SDS011;45951;45.824;8.824;2023-05-10T00:19:08;11.10;;;9.43;;
60078;SDS011;45951;45.824;8.824;2023-05-10T00:19:18;11.10;;;9.60;;
60078;SDS011;45951;45.824;8.824;2023-05-10T00:19:29;11.80;;;9.57;;
60078;SDS011;45951;45.824;8.824;2023-05-10T00:19:39;11.13;;;9.23;;
60078;SDS011;45951;45.824;8.824;2023-05-10T00:19:49;11.20;;;9.03;;
60078;SDS011;45951;45.824;8.824;2023-05-10T00:19:59;10.23;;;8.70;;
60078;SDS011;45951;45.824;8.824;2023-05-10T00:20:10;10.20;;;8.53;;
60078;SDS011;45951;45.824;8.824;2023-05-10T00:20:20;9.98;;;8.63;;
60078;SDS011;45951;45.824;8.824;2023-05-10T00:20:31;9.87;;;8.40;;
60078;SDS011;45951;45.824;8.824;2023-05-10T00:20:41;9.97;;;8.67;;
60078;SDS011;45951;45.824;8.824;2023-05-10T00:20:51;10.33;;;9.00;;
60078;SDS011;45951;45.824;8.824;2023-05-10T00:21:02;10.27;;;9.15;;
60078;SDS011;45951;45.824;8.824;2023-05-10T00:21:12;10.47;;;9.13;;
60078;SDS011;45951;45.824;8.824;2023-05-10T00:21:22;10.97;;;8.93;;
60078;SDS011;45951;45.824;8.824;2023-05-10T00:21:33;11.95;;;9.02;;
60078;SDS011;45951;45.824;8.824;2023-05-10T00:21:43;11.77;;;8.90;;
60078;SDS011;45951;45.824;8.824;2023-05-10T00:21:54;11.90;;;9.23;;
60078;SDS011;45951;45.824;8.824;2023-05-10T00:22:04;11.00;;;9.33;;
60078;SDS011;45951;45.824;8.824;2023-05-10T00:22:14;11.50;;;9.33;;
60078;SDS011;45951;45.824;8.824;2023-05-10T00:22:24;11.13;;;9.20;;
60078;SDS011;45951;45.824;8.824;2023-05-10T00:22:35;11.33;;;9.17;;
60078;SDS011;45951;45.824;8.824;2023-05-10T00:22:45;11.00;;;9.17;;
60078;SDS011;45951;45.824;8.824;2023-05-10T00:22:55;11.17;;;8.93;;
60078;SDS011;45951;45.824;8.824;2023-05-10T00:23:06;11.23;;;9.00;;
60078;SDS011;45951;45.824;8.824;2023-05-10T00:23:16;11.20;;;9.10;;
60078;SDS011;45951;45.824;8.824;2023-05-10T00:23:26;10.73;;;9.33;;
60078;SDS011;45951;45.824;8.824;2023-05-10T00:23:36;10.77;;;9.33;;
60078;SDS011;45951;45.824;8.824;2023-05-10T00:23:47;10.90;;;9.52;;
60078;SDS011;45951;45.824;8.824;2023-05-10T00:23:57;11.23;;;9.47;;
60078;SDS011;45951;45.824;8.824;2023-05-10T00:24:08;11.63;;;9.40;;
60078;SDS011;45951;45.824;8.824;2023-05-10T00:24:18;11.38;;;9.10;;
60078;SDS011;45951;45.824;8.824;2023-05-10T00:24:28;10.97;;;8.93;;
60078;SDS011;45951;45.824;8.824;2023-05-10T00:24:39;10.83;;;9.00;;
60078;SDS011;45951;45.824;8.824;2023-05-10T00:24:49;10.68;;;9.02;;
60078;SDS011;45951;45.824;8.824;2023-05-10T00:24:59;10.47;;;8.97;;
60078;SDS011;45951;45.824;8.824;2023-05-10T00:25:09;9.87;;;8.47;;
60078;SDS011;45951;45.824;8.824;2023-05-10T00:25:20;10.00;;;8.52;;
60078;SDS011;45951;45.824;8.824;2023-05-10T00:25:31;10.30;;;8.40;;
60078;SDS011;45951;45.824;8.824;2023-05-10T00:25:41;10.53;;;8.77;;
60078;SDS011;45951;45.824;8.824;2023-05-10T00:25:52;10.90;;;8.77;;
60078;SDS011;45951;45.824;8.824;2023-05-10T00:26:02;11.48;;;8.88;;
60078;SDS011;45951;45.824;8.824;2023-05-10T00:26:12;11.53;;;8.60;;
60078;SDS011;45951;45.824;8.824;2023-05-10T00:26:23;10.98;;;8.65;;
60078;SDS011;45951;45.824;8.824;2023-05-10T00:26:33;10.53;;;8.60;;
60078;SDS011;45951;45.824;8.824;2023-05-10T00:26:43;9.90;;;8.30;;
60078;SDS011;45951;45.824;8.824;2023-05-10T00:26:54;9.67;;;8.13;;
60078;SDS011;45951;45.824;8.824;2023-05-10T00:27:04;9.88;;;8.20;;
60078;SDS011;45951;45.824;8.824;2023-05-10T00:27:14;10.30;;;8.73;;
60078;SDS011;45951;45.824;8.824;2023-05-10T00:27:25;10.13;;;8.73;;
60078;SDS011;45951;45.824;8.824;2023-05-10T00:27:35;10.30;;;8.88;;
60078;SDS011;45951;45.824;8.824;2023-05-10T00:27:45;10.47;;;8.67;;
60078;SDS011;45951;45.824;8.824;2023-05-10T00:27:56;10.60;;;8.50;;
60078;SDS011;45951;45.824;8.824;2023-05-10T00:28:07;9.82;;;8.20;;
60078;SDS011;45951;45.824;8.824;2023-05-10T00:28:17;9.32;;;7.93;;
60078;SDS011;45951;45.824;8.824;2023-05-10T00:28:27;9.20;;;7.63;;
60078;SDS011;45951;45.824;8.824;2023-05-10T00:28:38;9.32;;;7.75;;
60078;SDS011;45951;45.824;8.824;2023-05-10T00:28:48;9.33;;;7.77;;
60078;SDS011;45951;45.824;8.824;2023-05-10T00:28:59;9.50;;;8.10;;
60078;SDS011;45951;45.824;8.824;2023-05-10T00:29:09;9.27;;;7.97;;
60078;SDS011;45951;45.824;8.824;2023-05-10T00:29:20;9.43;;;8.30;;
60078;SDS011;45951;45.824;8.824;2023-05-10T00:29:30;9.45;;;8.20;;
60078;SDS011;45951;45.824;8.824;2023-05-10T00:29:41;9.30;;;7.95;;
60078;SDS011;45951;45.824;8.824;2023-05-10T00:29:51;9.43;;;7.93;;
60078;SDS011;45951;45.824;8.824;2023-05-10T00:30:02;9.77;;;7.90;;
60078;SDS011;45951;45.824;8.824;2023-05-10T00:30:12;10.35;;;8.20;;
60078;SDS011;45951;45.824;8.824;2023-05-10T00:30:23;10.20;;;8.10;;
60078;SDS011;45951;45.824;8.824;2023-05-10T00:30:33;9.65;;;8.07;;
60078;SDS011;45951;45.824;8.824;2023-05-10T00:30:44;9.30;;;7.97;;
60078;SDS011;45951;45.824;8.824;2023-05-10T00:30:57;9.60;;;8.02;;
60078;SDS011;45951;45.824;8.824;2023-05-10T00:31:07;9.98;;;8.32;;
60078;SDS011;45951;45.824;8.824;2023-05-10T00:31:18;9.97;;;8.10;;
60078;SDS011;45951;45.824;8.824;2023-05-10T00:31:28;9.20;;;7.60;;
60078;SDS011;45951;45.824;8.824;2023-05-10T00:31:38;8.77;;;7.30;;
60078;SDS011;45951;45.824;8.824;2023-05-10T00:31:48;8.40;;;7.30;;
60078;SDS011;45951;45.824;8.824;2023-05-10T00:31:59;8.73;;;7.27;;
60078;SDS011;45951;45.824;8.824;2023-05-10T00:32:09;8.77;;;7.20;;
60078;SDS011;45951;45.824;8.824;2023-05-10T00:32:19;8.80;;;7.10;;
60078;SDS011;45951;45.824;8.824;2023-05-10T00:32:30;8.60;;;7.20;;
60078;SDS011;45951;45.824;8.824;2023-05-10T00:32:40;8.98;;;7.50;;
60078;SDS011;45951;45.824;8.824;2023-05-10T00:32:51;9.50;;;7.70;;
60078;SDS011;45951;45.824;8.824;2023-05-10T00:33:01;10.07;;;8.25;;
60078;SDS011;45951;45.824;8.824;2023-05-10T00:33:12;9.73;;;8.00;;
60078;SDS011;45951;45.824;8.824;2023-05-10T00:33:23;9.87;;;7.83;;
60078;SDS011;45951;45.824;8.824;2023-05-10T00:33:33;9.03;;;7.23;;
60078;SDS011;45951;45.824;8.824;2023-05-10T00:33:43;9.20;;;7.25;;
60078;SDS011;45951;45.824;8.824;2023-05-10T00:33:54;8.83;;;7.33;;
60078;SDS011;45951;45.824;8.824;2023-05-10T00:34:04;9.10;;;7.60;;
60078;SDS011;45951;45.824;8.824;2023-05-10T00:34:15;9.83;;;7.83;;
60078;SDS011;45951;45.824;8.824;2023-05-10T00:34:25;10.60;;;7.90;;
60078;SDS011;45951;45.824;8.824;2023-05-10T00:34:35;11.25;;;8.27;;
60078;SDS011;45951;45.824;8.824;2023-05-10T00:34:46;10.37;;;8.07;;
60078;SDS011;45951;45.824;8.824;2023-05-10T00:34:56;9.60;;;7.93;;
60078;SDS011;45951;45.824;8.824;2023-05-10T00:35:06;9.32;;;7.80;;
60078;SDS011;45951;45.824;8.824;2023-05-10T00:35:17;9.60;;;7.90;;
60078;SDS011;45951;45.824;8.824;2023-05-10T00:35:27;9.32;;;7.80;;
60078;SDS011;45951;45.824;8.824;2023-05-10T00:35:38;8.97;;;7.60;;
60078;SDS011;45951;45.824;8.824;2023-05-10T00:35:48;9.07;;;7.37;;
60078;SDS011;45951;45.824;8.824;2023-05-10T00:35:58;9.32;;;7.55;;
60078;SDS011;45951;45.824;8.824;2023-05-10T00:36:09;9.63;;;7.60;;
60078;SDS011;45951;45.824;8.824;2023-05-10T00:36:19;9.63;;;7.83;;
60078;SDS011;45951;45.824;8.824;2023-05-10T00:36:30;10.05;;;7.70;;
60078;SDS011;45951;45.824;8.824;2023-05-10T00:36:41;10.27;;;7.80;;
60078;SDS011;45951;45.824;8.824;2023-05-10T00:36:51;9.97;;;7.70;;
60078;SDS011;45951;45.824;8.824;2023-05-10T00:37:01;9.70;;;7.60;;
60078;SDS011;45951;45.824;8.824;2023-05-10T00:37:12;9.55;;;7.47;;
60078;SDS011;45951;45.824;8.824;2023-05-10T00:37:22;10.07;;;7.47;;
60078;SDS011;45951;45.824;8.824;2023-05-10T00:37:33;10.02;;;7.18;;
60078;SDS011;45951;45.824;8.824;2023-05-10T00:37:43;9.50;;;7.03;;
60078;SDS011;45951;45.824;8.824;2023-05-10T00:37:53;8.30;;;6.70;;
60078;SDS011;45951;45.824;8.824;2023-05-10T00:38:04;8.32;;;7.07;;
60078;SDS011;45951;45.824;8.824;2023-05-10T00:38:14;8.50;;;7.10;;
60078;SDS011;45951;45.824;8.824;2023-05-10T00:38:24;8.67;;;7.17;;
60078;SDS011;45951;45.824;8.824;2023-05-10T00:38:34;8.53;;;6.97;;
60078;SDS011;45951;45.824;8.824;2023-05-10T00:38:45;8.70;;;7.13;;
60078;SDS011;45951;45.824;8.824;2023-05-10T00:38:55;9.00;;;7.27;;
60078;SDS011;45951;45.824;8.824;2023-05-10T00:39:06;8.90;;;7.28;;
60078;SDS011;45951;45.824;8.824;2023-05-10T00:39:16;8.90;;;6.90;;
60078;SDS011;45951;45.824;8.824;2023-05-10T00:39:26;8.60;;;6.70;;
60078;SDS011;45951;45.824;8.824;2023-05-10T00:39:38;8.30;;;6.70;;
60078;SDS011;45951;45.824;8.824;2023-05-10T00:39:48;8.40;;;6.90;;
60078;SDS011;45951;45.824;8.824;2023-05-10T00:39:59;8.50;;;6.93;;
60078;SDS011;45951;45.824;8.824;2023-05-10T00:40:09;8.57;;;6.90;;
60078;SDS011;45951;45.824;8.824;2023-05-10T00:40:20;7.95;;;6.70;;
60078;SDS011;45951;45.824;8.824;2023-05-10T00:40:30;8.50;;;6.73;;
60078;SDS011;45951;45.824;8.824;2023-05-10T00:40:41;8.57;;;6.85;;
60078;SDS011;45951;45.824;8.824;2023-05-10T00:40:51;8.70;;;6.90;;
60078;SDS011;45951;45.824;8.824;2023-05-10T00:41:01;8.20;;;6.87;;
60078;SDS011;45951;45.824;8.824;2023-05-10T00:41:12;8.88;;;7.03;;
60078;SDS011;45951;45.824;8.824;2023-05-10T00:41:22;9.30;;;7.20;;
60078;SDS011;45951;45.824;8.824;2023-05-10T00:41:33;9.30;;;7.13;;
60078;SDS011;45951;45.824;8.824;2023-05-10T00:41:43;8.47;;;6.97;;
60078;SDS011;45951;45.824;8.824;2023-05-10T00:41:53;8.07;;;6.83;;
60078;SDS011;45951;45.824;8.824;2023-05-10T00:42:04;8.40;;;6.73;;
60078;SDS011;45951;45.824;8.824;2023-05-10T00:42:14;8.40;;;6.82;;
60078;SDS011;45951;45.824;8.824;2023-05-10T00:42:24;8.63;;;7.00;;
60078;SDS011;45951;45.824;8.824;2023-05-10T00:42:35;8.60;;;7.20;;
60078;SDS011;45951;45.824;8.824;2023-05-10T00:42:45;8.60;;;7.20;;
60078;SDS011;45951;45.824;8.824;2023-05-10T00:42:56;8.30;;;7.03;;
60078;SDS011;45951;45.824;8.824;2023-05-10T00:43:07;8.30;;;6.90;;
60078;SDS011;45951;45.824;8.824;2023-05-10T00:43:17;9.07;;;6.83;;
60078;SDS011;45951;45.824;8.824;2023-05-10T00:43:27;9.13;;;6.70;;
60078;SDS011;45951;45.824;8.824;2023-05-10T00:43:38;8.83;;;6.57;;
60078;SDS011;45951;45.824;8.824;2023-05-10T00:43:48;7.88;;;6.18;;
60078;SDS011;45951;45.824;8.824;2023-05-10T00:43:58;7.77;;;5.87;;
60078;SDS011;45951;45.824;8.824;2023-05-10T00:44:08;7.97;;;5.77;;
60078;SDS011;45951;45.824;8.824;2023-05-10T00:44:19;7.93;;;5.95;;
60078;SDS011;45951;45.824;8.824;2023-05-10T00:44:29;7.63;;;6.10;;
60078;SDS011;45951;45.824;8.824;2023-05-10T00:44:40;7.70;;;6.20;;
60078;SDS011;45951;45.824;8.824;2023-05-10T00:44:51;7.83;;;6.13;;
60078;SDS011;45951;45.824;8.824;2023-05-10T00:45:01;8.15;;;6.28;;
60078;SDS011;45951;45.824;8.824;2023-05-10T00:45:11;8.90;;;6.30;;
60078;SDS011;45951;45.824;8.824;2023-05-10T00:45:22;8.70;;;6.20;;
60078;SDS011;45951;45.824;8.824;2023-05-10T00:45:32;8.65;;;6.30;;
60078;SDS011;45951;45.824;8.824;2023-05-10T00:45:43;7.80;;;6.40;;
60078;SDS011;45951;45.824;8.824;2023-05-10T00:45:53;7.85;;;6.28;;
60078;SDS011;45951;45.824;8.824;2023-05-10T00:46:04;8.13;;;6.10;;
60078;SDS011;45951;45.824;8.824;2023-05-10T00:46:15;8.73;;;6.38;;
60078;SDS011;45951;45.824;8.824;2023-05-10T00:46:25;9.00;;;7.10;;
60078;SDS011;45951;45.824;8.824;2023-05-10T00:46:36;8.83;;;7.40;;
60078;SDS011;45951;45.824;8.824;2023-05-10T00:46:46;8.75;;;7.40;;
60078;SDS011;45951;45.824;8.824;2023-05-10T00:46:57;8.67;;;7.10;;
60078;SDS011;45951;45.824;8.824;2023-05-10T00:47:08;8.32;;;6.43;;
60078;SDS011;45951;45.824;8.824;2023-05-10T00:47:18;8.27;;;6.30;;
60078;SDS011;45951;45.824;8.824;2023-05-10T00:47:28;8.20;;;6.20;;
60078;SDS011;45951;45.824;8.824;2023-05-10T00:47:39;8.00;;;6.33;;
60078;SDS011;45951;45.824;8.824;2023-05-10T00:47:49;8.07;;;6.15;;
60078;SDS011;45951;45.824;8.824;2023-05-10T00:48:02;8.35;;;6.07;;
60078;SDS011;45951;45.824;8.824;2023-05-10T00:48:13;8.32;;;6.05;;
60078;SDS011;45951;45.824;8.824;2023-05-10T00:48:24;8.23;;;6.17;;
60078;SDS011;45951;45.824;8.824;2023-05-10T00:48:34;7.90;;;6.20;;
60078;SDS011;45951;45.824;8.824;2023-05-10T00:48:44;7.95;;;6.40;;
60078;SDS011;45951;45.824;8.824;2023-05-10T00:48:55;7.83;;;6.40;;
60078;SDS011;45951;45.824;8.824;2023-05-10T00:49:05;7.50;;;6.28;;
60078;SDS011;45951;45.824;8.824;2023-05-10T00:49:16;7.50;;;6.20;;
60078;SDS011;45951;45.824;8.824;2023-05-10T00:49:26;7.55;;;6.40;;
60078;SDS011;45951;45.824;8.824;2023-05-10T00:49:37;8.03;;;6.70;;
60078;SDS011;45951;45.824;8.824;2023-05-10T00:49:47;7.90;;;6.72;;
60078;SDS011;45951;45.824;8.824;2023-05-10T00:49:58;8.03;;;6.53;;
60078;SDS011;45951;45.824;8.824;2023-05-10T00:50:10;7.95;;;6.50;;
60078;SDS011;45951;45.824;8.824;2023-05-10T00:50:21;7.63;;;6.40;;
60078;SDS011;45951;45.824;8.824;2023-05-10T00:50:32;7.78;;;6.30;;
60078;SDS011;45951;45.824;8.824;2023-05-10T00:50:43;7.80;;;6.18;;
60078;SDS011;45951;45.824;8.824;2023-05-10T00:50:53;8.10;;;6.30;;
60078;SDS011;45951;45.824;8.824;2023-05-10T00:51:04;7.80;;;6.22;;
60078;SDS011;45951;45.824;8.824;2023-05-10T00:51:14;7.63;;;6.13;;
60078;SDS011;45951;45.824;8.824;2023-05-10T00:51:25;7.27;;;6.00;;
60078;SDS011;45951;45.824;8.824;2023-05-10T00:51:35;7.25;;;6.00;;
60078;SDS011;45951;45.824;8.824;2023-05-10T00:51:46;7.40;;;6.15;;
60078;SDS011;45951;45.824;8.824;2023-05-10T00:51:57;7.93;;;6.10;;
60078;SDS011;45951;45.824;8.824;2023-05-10T00:52:07;7.97;;;6.13;;
60078;SDS011;45951;45.824;8.824;2023-05-10T00:52:18;8.07;;;6.22;;
60078;SDS011;45951;45.824;8.824;2023-05-10T00:52:28;8.15;;;6.35;;
60078;SDS011;45951;45.824;8.824;2023-05-10T00:52:39;8.50;;;6.40;;
60078;SDS011;45951;45.824;8.824;2023-05-10T00:52:50;8.10;;;6.20;;
60078;SDS011;45951;45.824;8.824;2023-05-10T00:53:00;7.37;;;6.07;;
60078;SDS011;45951;45.824;8.824;2023-05-10T00:53:11;7.10;;;5.93;;
60078;SDS011;45951;45.824;8.824;2023-05-10T00:53:21;7.63;;;6.05;;
60078;SDS011;45951;45.824;8.824;2023-05-10T00:53:32;8.20;;;6.30;;
60078;SDS011;45951;45.824;8.824;2023-05-10T00:53:43;8.60;;;6.68;;
60078;SDS011;45951;45.824;8.824;2023-05-10T00:53:54;8.70;;;6.90;;
60078;SDS011;45951;45.824;8.824;2023-05-10T00:54:05;8.90;;;7.00;;
60078;SDS011;45951;45.824;8.824;2023-05-10T00:54:16;8.47;;;6.67;;
60078;SDS011;45951;45.824;8.824;2023-05-10T00:54:27;8.02;;;6.45;;
60078;SDS011;45951;45.824;8.824;2023-05-10T00:54:37;7.93;;;6.20;;
60078;SDS011;45951;45.824;8.824;2023-05-10T00:54:47;8.23;;;5.95;;
60078;SDS011;45951;45.824;8.824;2023-05-10T00:54:58;8.83;;;5.97;;
60078;SDS011;45951;45.824;8.824;2023-05-10T00:55:09;9.20;;;6.13;;
60078;SDS011;45951;45.824;8.824;2023-05-10T00:55:20;9.18;;;6.53;;
60078;SDS011;45951;45.824;8.824;2023-05-10T00:55:30;8.53;;;6.60;;
60078;SDS011;45951;45.824;8.824;2023-05-10T00:55:41;8.70;;;6.53;;
60078;SDS011;45951;45.824;8.824;2023-05-10T00:55:51;8.83;;;6.60;;
60078;SDS011;45951;45.824;8.824;2023-05-10T00:56:02;8.52;;;6.50;;
60078;SDS011;45951;45.824;8.824;2023-05-10T00:56:13;8.85;;;6.38;;
60078;SDS011;45951;45.824;8.824;2023-05-10T00:56:24;9.13;;;6.27;;
60078;SDS011;45951;45.824;8.824;2023-05-10T00:56:34;9.27;;;6.20;;
60078;SDS011;45951;45.824;8.824;2023-05-10T00:56:45;8.35;;;6.22;;
60078;SDS011;45951;45.824;8.824;2023-05-10T00:56:58;7.47;;;5.97;;
60078;SDS011;45951;45.824;8.824;2023-05-10T00:57:08;7.00;;;5.82;;
60078;SDS011;45951;45.824;8.824;2023-05-10T00:57:19;8.03;;;5.90;;
60078;SDS011;45951;45.824;8.824;2023-05-10T00:57:29;8.47;;;5.90;;
60078;SDS011;45951;45.824;8.824;2023-05-10T00:57:40;8.68;;;5.60;;
60078;SDS011;45951;45.824;8.824;2023-05-10T00:57:50;7.80;;;5.77;;
60078;SDS011;45951;45.824;8.824;2023-05-10T00:58:02;8.13;;;6.10;;
60078;SDS011;45951;45.824;8.824;2023-05-10T00:58:13;9.18;;;6.45;;
60078;SDS011;45951;45.824;8.824;2023-05-10T00:58:24;9.63;;;6.50;;
60078;SDS011;45951;45.824;8.824;2023-05-10T00:58:38;8.65;;;6.15;;
60078;SDS011;45951;45.824;8.824;2023-05-10T00:58:49;8.00;;;6.10;;
60078;SDS011;45951;45.824;8.824;2023-05-10T00:59:00;7.28;;;5.78;;
60078;SDS011;45951;45.824;8.824;2023-05-10T00:59:10;7.13;;;5.73;;
60078;SDS011;45951;45.824;8.824;2023-05-10T00:59:20;6.83;;;5.50;;
60078;SDS011;45951;45.824;8.824;2023-05-10T00:59:31;6.88;;;5.50;;
60078;SDS011;45951;45.824;8.824;2023-05-10T00:59:42;7.05;;;5.60;;
60078;SDS011;45951;45.824;8.824;2023-05-10T00:59:52;7.00;;;5.50;;
60078;SDS011;45951;45.824;8.824;2023-05-10T01:00:03;7.10;;;5.47;;
60078;SDS011;45951;45.824;8.824;2023-05-10T01:00:14;7.50;;;5.50;;
60078;SDS011;45951;45.824;8.824;2023-05-10T01:00:28;8.75;;;5.63;;
60078;SDS011;45951;45.824;8.824;2023-05-10T01:00:39;8.73;;;5.90;;
60078;SDS011;45951;45.824;8.824;2023-05-10T01:00:51;8.27;;;5.97;;
60078;SDS011;45951;45.824;8.824;2023-05-10T01:01:02;7.15;;;5.80;;
60078;SDS011;45951;45.824;8.824;2023-05-10T01:01:12;7.10;;;5.83;;
60078;SDS011;45951;45.824;8.824;2023-05-10T01:01:23;7.47;;;6.05;;
60078;SDS011;45951;45.824;8.824;2023-05-10T01:01:35;8.60;;;6.18;;
60078;SDS011;45951;45.824;8.824;2023-05-10T01:01:46;9.18;;;6.30;;
60078;SDS011;45951;45.824;8.824;2023-05-10T01:01:56;8.45;;;6.40;;
60078;SDS011;45951;45.824;8.824;2023-05-10T01:02:07;8.02;;;6.30;;
60078;SDS011;45951;45.824;8.824;2023-05-10T01:02:18;7.60;;;6.00;;
60078;SDS011;45951;45.824;8.824;2023-05-10T01:02:28;7.63;;;5.75;;
60078;SDS011;45951;45.824;8.824;2023-05-10T01:02:38;7.40;;;5.77;;
60078;SDS011;45951;45.824;8.824;2023-05-10T01:02:49;8.02;;;5.90;;